KCWV

Details ICAO KCWV
Name CLAXTON EVANS CO
Region United States
Timezone America/New_York (UTC-5.0)
Plans Departing 0
Arriving 2
Stats Elevation 112 ft / 34 m (AMSL)
Location 32.195054° -81.869558°
Runways 1
Magnetic Variation 6.603° W
Sunrise 2017-12-14 12:21:57 UTC / 2017-12-14 07:21:57 Local
Sunset 2017-12-14 22:25:23 UTC / 2017-12-14 17:25:23 Local
Advertisement - Login to hide

Runways

ID Width Length Bearing (true) Bearing (mag) Surface Threshold Offset Overrun Length
09 75 ft / 23 m 4,994 ft / 1,522 m 88.77° 95.37° Asphalt 0 ft / 0 m 0 ft / 0 m
27 75 ft / 23 m 4,994 ft / 1,522 m 268.78° 275.38° Asphalt 1,000 ft / 305 m 0 ft / 0 m

Map

Weather


0- 5 10 15 20 25 30 35+ Temperature / ° C

Clouds and Precipitation
Forecast for 2017-12-14 18:00 UTC. Updated 2 hours ago

Ground ~20,000 ft ~40,000 ft Winds

METAR

KCWV 141855Z AUTO 19004KT 10SM CLR 18/03 A2994 RMK AO2 T01810034

TAF

Not found

Frequencies

Unicom 122.80 MHz CTAF/UNICOM
Warning: Do not use this data for real-world aviation or navigation. No guarantee of current accuracy is given.